Aeroporto :
LOGIN :

Iscrizione | Disclaimer

   EN    FR    IT 

 










Sommario :    VFR   VFR Marginale   IFR   IFR Intensivo   IFR Molto Intensivo
Visibilità : 
Base nubi : 
>= 8 km
>= 3000ft
5 / 8 km
1000 / 3000 ft
1500m / 5 km
500 / 1000 ft
800 / 1500m
200 / 500 ft
< 800m
< 200 ft
Simboli :   Temporali  Nebbia  Neve Forte  Precipitazioni Forti  Vento > 20 kt
SIGMETs :   Varie  Temporali  Ghiacco  Turbolenza  Onda orograficha  Ceneri Vulcaniche






- Altitudine del aeroporto : 200 ft


EBBL - Klein Brogel AB

ULTIMO METAR :
  • 231925Z AUTO 18005KT 9999 SCT053/// 05/03 Q0993 BLU

METARs OBSOLETI :
  • 231855Z AUTO 18005KT 9999 FEW050/// 06/02 Q0993 BLU
  • 231825Z AUTO 19007KT 9999 FEW050/// 06/02 Q0993 BLU
  • 231755Z AUTO 19004KT 9999 FEW034/// 06/02 Q0992 BLU
  • 231725Z AUTO 18004KT 9999 BKN035/// 07/02 Q0992 BLU
  • 231655Z AUTO 19004KT 9999 BKN051/// 07/02 Q0992 BLU
  • 231625Z AUTO 20007KT 9999 FEW034/// BKN048/// 08/02 Q0992 BLU
  • 231555Z 21009KT 9999 FEW042 SCT050 08/02 Q0992 BLU BLU
  • 231525Z 21011KT 9999 BKN045 08/01 Q0992 BLU BLU
  • 231455Z 21012KT 9999 FEW035 BKN048 08/02 Q0992 BLU BLU

TAF TAF EBBL
Valido dal 23 a 19 ore il 24 a 07 ore UTC


231541Z 2319/2407 19008KT 9999 SCT030 BKN040
PROB30
TEMPO 2319/2323 6000 -SHRA BKN025
BECMG 2323/2401 BKN020 BKN030



MetMap, La meteo Aeronautica in un colpo d'occhio ! - Copyright ORBIFLY Dicembre 2007 - Disclaimer

ORBIFLY MET'MAP TEAM :

Programmazione e sviluppo : Alexandra Zaïnal
Concezione : Baudouin d'Aumeries
Supporto tecnico e logistico : Manuel Goepfert
Aiuto : Marc-Olivier Méhu
Aiuto per la traduzione : Arnaldo La Scala




FONTI E CREDITI :

   NOAA